Terminal Aerodrome Forecast
Issued by NWS Portland, ME

Current Version | Previous Version | Text Only | Print | Product List | Glossary On
Versions: 1 2 3 4 5 6 7 8 9 10 11 12 13 14 15 16 17 18 19 20 21 22 23 24 25
506 FTUS41 KGYX 051333 AAH TAFCON TAF AMD KCON 051333Z 0514/0612 00000KT 3SM -SN BR OVC060 TEMPO 0514/0516 2SM -SN BR OVC025 FM051600 32006KT 5SM BR BKN025 OVC040 FM060000 31004KT P6SM SKC=

USA.gov is the U.S. government's official web portal to all federal, state and local government web resources and services.